createdAt,value
2018-11-25T00:00:11.060Z,2.20
2018-11-25T00:02:39.368Z,2.10
2018-11-25T00:05:08.583Z,2.00
2018-11-25T00:07:36.891Z,2.10
2018-11-25T00:10:06.237Z,2.10
2018-11-25T00:12:34.585Z,2.00
2018-11-25T00:15:02.900Z,1.90
2018-11-25T00:17:31.407Z,1.90
2018-11-25T00:19:59.785Z,1.90
2018-11-25T00:22:28.084Z,1.90
2018-11-25T00:24:56.451Z,1.90
2018-11-25T00:27:24.764Z,1.90
2018-11-25T00:29:53.056Z,1.90
2018-11-25T00:32:21.348Z,1.90
2018-11-25T00:34:49.653Z,1.90
2018-11-25T00:37:17.944Z,2.00
2018-11-25T00:39:46.261Z,2.00
2018-11-25T00:42:14.561Z,2.10
2018-11-25T00:44:42.869Z,2.00
2018-11-25T00:47:11.180Z,2.00
2018-11-25T00:49:39.498Z,2.00
2018-11-25T00:52:07.792Z,2.00
2018-11-25T00:54:36.105Z,1.90
2018-11-25T00:57:04.397Z,1.90
2018-11-25T00:59:32.717Z,1.90
2018-11-25T01:02:01.096Z,1.90
2018-11-25T01:04:29.431Z,1.80
2018-11-25T01:06:57.788Z,1.90
2018-11-25T01:09:26.100Z,2.00
2018-11-25T01:11:54.389Z,2.10
2018-11-25T01:14:22.702Z,2.20
2018-11-25T01:16:51.005Z,2.20
2018-11-25T01:19:19.325Z,2.20
2018-11-25T01:21:47.623Z,2.10
2018-11-25T01:24:15.932Z,2.10
2018-11-25T01:26:44.230Z,2.10
2018-11-25T01:29:12.565Z,2.20
2018-11-25T01:31:40.860Z,2.20
2018-11-25T01:34:09.169Z,2.30
2018-11-25T01:36:37.469Z,2.30
2018-11-25T01:39:06.920Z,2.40
2018-11-25T01:41:35.212Z,2.30
2018-11-25T01:44:03.931Z,2.40
2018-11-25T01:46:32.269Z,2.40
2018-11-25T01:49:00.600Z,2.40
2018-11-25T01:51:29.009Z,2.40
2018-11-25T01:53:57.318Z,2.60
2018-11-25T01:56:25.609Z,2.60
2018-11-25T01:58:53.924Z,2.70
2018-11-25T02:01:22.297Z,2.70
2018-11-25T02:03:50.627Z,2.90
2018-11-25T02:06:18.929Z,2.90
2018-11-25T02:08:47.285Z,2.90
2018-11-25T02:11:15.579Z,2.80
2018-11-25T02:13:43.910Z,2.80
2018-11-25T02:16:12.204Z,2.90
2018-11-25T02:18:40.578Z,2.90
2018-11-25T02:21:08.857Z,3.00
2018-11-25T02:23:37.173Z,3.10
2018-11-25T02:26:05.700Z,3.20
2018-11-25T02:28:34.025Z,3.20
2018-11-25T02:31:02.333Z,3.10
2018-11-25T02:33:30.653Z,3.00
2018-11-25T02:35:58.949Z,3.10
2018-11-25T02:38:27.265Z,3.10
2018-11-25T02:40:55.633Z,3.10
2018-11-25T02:43:23.924Z,3.00
2018-11-25T02:45:52.228Z,3.00
2018-11-25T02:48:20.537Z,3.00
2018-11-25T02:50:48.841Z,3.00
2018-11-25T02:53:17.144Z,3.10
2018-11-25T02:55:45.448Z,3.20
2018-11-25T02:58:13.741Z,3.20
2018-11-25T03:00:42.046Z,3.20
2018-11-25T03:03:10.338Z,3.30
2018-11-25T03:05:38.645Z,3.40
2018-11-25T03:08:06.941Z,3.30
2018-11-25T03:10:35.324Z,3.30
2018-11-25T03:13:03.614Z,3.30
2018-11-25T03:15:31.926Z,3.30
2018-11-25T03:18:00.225Z,3.20
2018-11-25T03:20:28.542Z,3.20
2018-11-25T03:22:56.833Z,3.20
2018-11-25T03:25:25.142Z,3.20
2018-11-25T03:27:53.432Z,3.20
2018-11-25T03:30:22.138Z,3.20
2018-11-25T03:32:51.476Z,3.20
2018-11-25T03:35:19.852Z,3.30
2018-11-25T03:37:48.141Z,3.40
2018-11-25T03:40:17.297Z,3.50
2018-11-25T03:42:45.593Z,3.40
2018-11-25T03:45:17.449Z,3.40
2018-11-25T03:47:45.801Z,3.50
2018-11-25T03:50:14.681Z,3.50
2018-11-25T03:52:42.998Z,3.40
2018-11-25T03:55:12.273Z,3.50
2018-11-25T03:57:40.621Z,3.50
2018-11-25T04:00:14.264Z,3.50
2018-11-25T04:02:42.588Z,3.40
2018-11-25T04:05:14.033Z,3.30
2018-11-25T04:07:42.332Z,3.30
2018-11-25T04:10:11.790Z,3.30
2018-11-25T04:12:40.098Z,3.20
2018-11-25T04:15:10.258Z,3.30
2018-11-25T04:17:38.568Z,3.30
2018-11-25T04:20:09.993Z,3.30
2018-11-25T04:22:38.539Z,3.20
2018-11-25T04:25:08.717Z,3.20
2018-11-25T04:27:37.169Z,3.10
2018-11-25T04:30:08.069Z,3.00
2018-11-25T04:32:36.365Z,3.10
2018-11-25T04:35:04.816Z,3.20
2018-11-25T04:37:33.108Z,3.20
2018-11-25T04:40:01.502Z,3.20
2018-11-25T04:42:29.802Z,3.20
2018-11-25T04:44:58.120Z,3.10
2018-11-25T04:47:26.445Z,3.00
2018-11-25T04:49:54.752Z,2.90
2018-11-25T04:52:23.046Z,2.90
2018-11-25T04:54:51.429Z,2.90
2018-11-25T04:57:19.833Z,2.90
2018-11-25T04:59:48.148Z,2.80
2018-11-25T05:02:16.437Z,2.80
2018-11-25T05:04:44.755Z,2.80
2018-11-25T05:07:13.069Z,2.80
2018-11-25T05:09:41.376Z,2.80
2018-11-25T05:12:09.670Z,2.80
2018-11-25T05:14:37.980Z,2.80
2018-11-25T05:17:06.448Z,2.90
2018-11-25T05:19:34.810Z,2.90
2018-11-25T05:22:03.125Z,2.80
2018-11-25T05:24:31.418Z,2.80
2018-11-25T05:26:59.733Z,2.80
2018-11-25T05:29:28.022Z,2.70
2018-11-25T05:31:56.337Z,2.70
2018-11-25T05:34:24.630Z,2.70
2018-11-25T05:36:52.943Z,2.70
2018-11-25T05:39:21.233Z,3.00
2018-11-25T05:41:49.541Z,3.00
2018-11-25T05:45:21.190Z,3.00
2018-11-25T05:47:49.512Z,3.00
2018-11-25T05:50:19.180Z,3.00
2018-11-25T05:52:47.468Z,3.00
2018-11-25T05:55:15.825Z,3.10
2018-11-25T05:57:44.180Z,3.10
2018-11-25T06:00:17.592Z,3.00
2018-11-25T06:02:45.935Z,2.90
2018-11-25T06:05:14.261Z,2.70
2018-11-25T06:07:42.551Z,2.60
2018-11-25T06:10:12.044Z,2.50
2018-11-25T06:12:40.372Z,2.40
2018-11-25T06:15:11.002Z,2.40
2018-11-25T06:17:39.318Z,2.40
2018-11-25T06:20:11.279Z,2.40
2018-11-25T06:22:39.606Z,2.40
2018-11-25T06:25:09.477Z,2.50
2018-11-25T06:27:38.375Z,2.50
2018-11-25T06:30:08.792Z,2.50
2018-11-25T06:32:37.104Z,2.50
2018-11-25T06:35:06.480Z,2.40
2018-11-25T06:37:34.790Z,2.50
2018-11-25T06:40:03.278Z,2.40
2018-11-25T06:42:31.589Z,2.40
2018-11-25T06:44:59.872Z,2.30
2018-11-25T06:47:28.197Z,2.30
2018-11-25T06:49:56.486Z,2.30
2018-11-25T06:52:24.796Z,2.30
2018-11-25T06:54:53.078Z,2.20
2018-11-25T06:57:21.417Z,2.30
2018-11-25T06:59:49.700Z,2.30
2018-11-25T07:02:18.002Z,2.20
2018-11-25T07:04:46.297Z,2.30
2018-11-25T07:07:14.609Z,2.30
2018-11-25T07:09:42.917Z,2.30
2018-11-25T07:12:11.228Z,2.20
2018-11-25T07:14:39.529Z,2.20
2018-11-25T07:17:07.841Z,2.40
2018-11-25T07:19:36.129Z,2.40
2018-11-25T07:22:04.438Z,2.40
2018-11-25T07:24:32.734Z,2.30
2018-11-25T07:27:01.053Z,2.30
2018-11-25T07:29:29.345Z,2.30
2018-11-25T07:31:57.664Z,2.30
2018-11-25T07:34:25.957Z,2.30
2018-11-25T07:36:54.260Z,2.40
2018-11-25T07:39:22.553Z,2.40
2018-11-25T07:41:50.861Z,2.40
2018-11-25T07:44:19.153Z,2.40
2018-11-25T07:46:47.500Z,2.40
2018-11-25T07:49:15.789Z,2.60
2018-11-25T07:51:44.089Z,2.70
2018-11-25T07:54:12.384Z,2.90
2018-11-25T07:56:40.701Z,3.10
2018-11-25T07:59:08.994Z,3.20
2018-11-25T08:01:37.302Z,3.50
2018-11-25T08:04:05.649Z,3.50
2018-11-25T08:06:34.057Z,3.40
2018-11-25T08:09:02.348Z,3.40
2018-11-25T08:11:30.665Z,3.50
2018-11-25T08:13:58.961Z,3.50
2018-11-25T08:16:27.265Z,3.50
2018-11-25T08:18:55.566Z,3.60
2018-11-25T08:21:23.884Z,3.90
2018-11-25T08:23:52.269Z,3.80
2018-11-25T08:26:20.593Z,3.90
2018-11-25T08:28:48.889Z,4.10
2018-11-25T08:31:17.286Z,4.20
2018-11-25T08:33:45.590Z,4.30
2018-11-25T08:36:13.904Z,4.60
2018-11-25T08:38:42.197Z,4.80
2018-11-25T08:41:10.496Z,4.90
2018-11-25T08:43:38.813Z,4.80
2018-11-25T08:46:07.109Z,4.80
2018-11-25T08:48:35.449Z,4.70
2018-11-25T08:51:03.736Z,4.60
2018-11-25T08:53:32.049Z,4.60
2018-11-25T08:56:00.345Z,4.60
2018-11-25T08:58:28.660Z,4.70
2018-11-25T09:00:56.957Z,4.70
2018-11-25T09:03:25.277Z,4.70
2018-11-25T09:05:53.731Z,4.70
2018-11-25T09:08:22.036Z,4.80
2018-11-25T09:10:50.491Z,4.80
2018-11-25T09:13:18.813Z,4.90
2018-11-25T09:15:47.109Z,4.90
2018-11-25T09:18:15.428Z,4.90
2018-11-25T09:20:43.733Z,4.90
2018-11-25T09:23:12.049Z,5.00
2018-11-25T09:25:40.374Z,5.10
2018-11-25T09:28:08.684Z,5.20
2018-11-25T09:30:36.982Z,5.50
2018-11-25T09:33:05.299Z,5.60
2018-11-25T09:35:33.616Z,5.80
2018-11-25T09:38:01.955Z,5.90
2018-11-25T09:40:30.292Z,6.00
2018-11-25T09:42:58.600Z,5.90
2018-11-25T09:45:26.892Z,6.00
2018-11-25T09:47:55.233Z,6.30
2018-11-25T09:50:24.020Z,6.40
2018-11-25T09:52:52.345Z,6.60
2018-11-25T09:55:21.704Z,6.50
2018-11-25T09:57:53.072Z,6.40
2018-11-25T10:00:22.532Z,6.50
2018-11-25T10:02:50.847Z,6.80
2018-11-25T10:05:19.132Z,6.90
2018-11-25T10:07:47.440Z,6.90
2018-11-25T10:10:17.625Z,6.80
2018-11-25T10:12:45.941Z,6.80
2018-11-25T10:15:15.272Z,6.80
2018-11-25T10:17:43.589Z,6.80
2018-11-25T10:20:16.054Z,6.70
2018-11-25T10:22:44.744Z,6.60
2018-11-25T10:25:13.796Z,6.60
2018-11-25T10:27:42.137Z,6.60
2018-11-25T10:30:12.181Z,6.70
2018-11-25T10:32:40.525Z,6.70
2018-11-25T10:35:09.068Z,6.70
2018-11-25T10:37:37.381Z,6.70
2018-11-25T10:40:11.432Z,6.70
2018-11-25T10:42:39.751Z,6.70
2018-11-25T10:45:11.462Z,6.60
2018-11-25T10:47:39.898Z,6.80
2018-11-25T10:50:09.971Z,7.00
2018-11-25T10:52:38.285Z,7.00
2018-11-25T10:55:08.999Z,7.20
2018-11-25T10:57:37.317Z,7.40
2018-11-25T11:00:10.187Z,7.60
2018-11-25T11:02:44.869Z,7.80
2018-11-25T11:05:18.521Z,7.80
2018-11-25T11:07:46.896Z,7.90
2018-11-25T11:10:15.188Z,8.10
2018-11-25T11:12:43.503Z,8.10
2018-11-25T11:15:12.057Z,8.30
2018-11-25T11:17:40.373Z,8.20
2018-11-25T11:20:09.949Z,8.20
2018-11-25T11:22:38.312Z,8.10
2018-11-25T11:25:08.144Z,8.10
2018-11-25T11:27:36.515Z,8.00
2018-11-25T11:30:08.296Z,8.10
2018-11-25T11:32:36.705Z,8.30
2018-11-25T11:35:06.030Z,8.30
2018-11-25T11:37:34.377Z,8.30
2018-11-25T11:40:02.677Z,8.30
2018-11-25T11:42:30.977Z,8.20
2018-11-25T11:44:59.294Z,8.20
2018-11-25T11:47:27.598Z,8.20
2018-11-25T11:49:55.914Z,8.30
2018-11-25T11:52:24.196Z,8.40
2018-11-25T11:54:52.502Z,8.30
2018-11-25T11:57:20.795Z,8.20
2018-11-25T11:59:49.101Z,8.30
2018-11-25T12:02:17.449Z,8.30
2018-11-25T12:04:45.768Z,8.30
2018-11-25T12:07:14.173Z,8.30
2018-11-25T12:09:42.500Z,8.40
2018-11-25T12:12:10.793Z,8.70
2018-11-25T12:14:39.097Z,8.80
2018-11-25T12:17:07.393Z,8.90
2018-11-25T12:19:35.781Z,8.80
2018-11-25T12:22:04.792Z,8.80
2018-11-25T12:24:33.179Z,8.90
2018-11-25T12:27:03.183Z,8.90
2018-11-25T12:29:32.667Z,8.70
2018-11-25T12:32:00.984Z,8.60
2018-11-25T12:34:29.830Z,8.60
2018-11-25T12:36:58.312Z,8.50
2018-11-25T12:39:28.462Z,8.40
2018-11-25T12:41:55.508Z,8.30
2018-11-25T12:44:29.180Z,8.20
2018-11-25T12:46:53.224Z,8.20
2018-11-25T12:49:21.529Z,8.20
2018-11-25T12:51:49.901Z,8.20
2018-11-25T12:54:18.209Z,8.10
2018-11-25T12:56:51.656Z,8.00
2018-11-25T12:59:15.066Z,7.90
2018-11-25T13:01:43.363Z,7.90
2018-11-25T13:04:12.391Z,8.00
2018-11-25T13:06:40.009Z,8.00
2018-11-25T13:09:08.577Z,8.10
2018-11-25T13:11:36.865Z,8.10
2018-11-25T13:14:05.568Z,8.10
2018-11-25T13:16:33.860Z,8.00
2018-11-25T13:19:02.570Z,7.90
2018-11-25T13:21:31.103Z,8.00
2018-11-25T13:23:59.493Z,8.20
2018-11-25T13:26:27.881Z,8.30
2018-11-25T13:28:57.765Z,8.10
2018-11-25T13:31:26.058Z,8.00
2018-11-25T13:33:54.361Z,8.10
2018-11-25T13:36:22.661Z,8.00
2018-11-25T13:38:51.002Z,8.00
2018-11-25T13:41:19.374Z,7.90
2018-11-25T13:43:47.685Z,8.00
2018-11-25T13:46:16.054Z,8.10
2018-11-25T13:48:44.386Z,8.10
2018-11-25T13:51:12.681Z,8.00
2018-11-25T13:53:41.066Z,7.90
2018-11-25T13:56:09.330Z,7.90
2018-11-25T13:58:37.621Z,7.90
2018-11-25T14:01:07.639Z,7.90
2018-11-25T14:03:38.148Z,7.80
2018-11-25T14:06:09.787Z,7.80
2018-11-25T14:08:38.081Z,7.60
2018-11-25T14:11:08.933Z,7.70
2018-11-25T14:13:37.221Z,7.70
2018-11-25T14:16:07.653Z,7.60
2018-11-25T14:18:35.945Z,7.50
2018-11-25T14:21:04.344Z,7.50
2018-11-25T14:23:32.737Z,7.50
2018-11-25T14:26:06.883Z,7.30
2018-11-25T14:28:35.169Z,7.40
2018-11-25T14:31:03.481Z,7.30
2018-11-25T14:33:31.946Z,7.30
2018-11-25T14:36:00.281Z,7.20
2018-11-25T14:38:28.575Z,7.10
2018-11-25T14:40:56.941Z,7.00
2018-11-25T14:43:25.237Z,6.90
2018-11-25T14:45:53.837Z,6.80
2018-11-25T14:48:22.139Z,6.70
2018-11-25T14:50:50.462Z,6.60
2018-11-25T14:53:18.752Z,6.50
2018-11-25T14:55:47.068Z,6.50
2018-11-25T14:58:15.373Z,6.50
2018-11-25T15:00:43.689Z,6.40
2018-11-25T15:03:11.984Z,6.20
2018-11-25T15:05:43.393Z,6.20
2018-11-25T15:08:13.289Z,6.20
2018-11-25T15:10:41.612Z,6.20
2018-11-25T15:13:09.985Z,6.10
2018-11-25T15:15:38.288Z,6.00
2018-11-25T15:18:07.578Z,6.00
2018-11-25T15:20:35.889Z,5.80
2018-11-25T15:23:07.012Z,5.80
2018-11-25T15:25:36.973Z,5.70
2018-11-25T15:28:05.933Z,5.80
2018-11-25T15:30:34.259Z,5.80
2018-11-25T15:33:02.557Z,5.80
2018-11-25T15:35:30.927Z,5.90
2018-11-25T15:37:59.246Z,6.00
2018-11-25T15:40:29.058Z,5.90
2018-11-25T15:42:57.352Z,5.90
2018-11-25T15:45:25.689Z,6.00
2018-11-25T15:47:58.406Z,5.90
2018-11-25T15:50:27.845Z,6.10
2018-11-25T15:52:56.316Z,6.20
2018-11-25T15:55:24.642Z,6.20
2018-11-25T15:57:52.944Z,6.20
2018-11-25T16:00:22.433Z,6.20
2018-11-25T16:02:50.736Z,6.10
2018-11-25T16:05:21.573Z,6.10
2018-11-25T16:07:49.877Z,5.90
2018-11-25T16:10:18.218Z,5.90
2018-11-25T16:12:47.749Z,5.90
2018-11-25T16:15:19.151Z,5.90
2018-11-25T16:17:47.440Z,5.90
2018-11-25T16:20:18.789Z,5.80
2018-11-25T16:22:48.385Z,5.80
2018-11-25T16:25:25.261Z,5.80
2018-11-25T16:27:56.754Z,5.80
2018-11-25T16:30:25.069Z,5.70
2018-11-25T16:32:53.359Z,5.60
2018-11-25T16:35:21.669Z,5.70
2018-11-25T16:37:49.970Z,5.50
2018-11-25T16:40:18.302Z,5.50
2018-11-25T16:42:46.593Z,5.40
2018-11-25T16:45:16.213Z,5.30
2018-11-25T16:47:44.518Z,5.30
2018-11-25T16:50:24.489Z,5.20
2018-11-25T16:52:44.591Z,5.20
2018-11-25T16:55:13.758Z,5.00
2018-11-25T16:57:42.668Z,4.90
2018-11-25T17:00:13.524Z,4.70
2018-11-25T17:02:41.824Z,4.70
2018-11-25T17:05:11.947Z,4.80
2018-11-25T17:07:40.258Z,4.80
2018-11-25T17:10:10.264Z,4.80
2018-11-25T17:12:38.566Z,4.70
2018-11-25T17:15:19.340Z,4.60
2018-11-25T17:17:47.639Z,4.60
2018-11-25T17:20:15.948Z,4.50
2018-11-25T17:22:44.241Z,4.30
2018-11-25T17:25:13.410Z,4.30
2018-11-25T17:27:41.913Z,4.30
2018-11-25T17:30:11.824Z,4.30
2018-11-25T17:32:40.141Z,4.20
2018-11-25T17:35:13.770Z,4.10
2018-11-25T17:37:42.100Z,3.90
2018-11-25T17:40:10.542Z,3.90
2018-11-25T17:42:39.213Z,3.80
2018-11-25T17:45:09.371Z,3.70
2018-11-25T17:47:37.708Z,3.70
2018-11-25T17:50:24.141Z,3.60
2018-11-25T17:52:52.460Z,3.50
2018-11-25T17:55:21.640Z,3.40
2018-11-25T17:57:50.004Z,3.30
2018-11-25T18:00:34.578Z,3.30
2018-11-25T18:03:02.873Z,3.20
2018-11-25T18:05:38.503Z,3.20
2018-11-25T18:07:59.538Z,3.10
2018-11-25T18:10:27.871Z,3.00
2018-11-25T18:12:56.185Z,3.00
2018-11-25T18:15:24.476Z,2.80
2018-11-25T18:17:57.375Z,2.70
2018-11-25T18:20:26.449Z,2.60
2018-11-25T18:22:54.766Z,2.50
2018-11-25T18:25:23.108Z,2.50
2018-11-25T18:28:00.043Z,2.50
2018-11-25T18:30:19.968Z,2.40
2018-11-25T18:32:48.281Z,2.50
2018-11-25T18:35:16.591Z,2.50
2018-11-25T18:37:44.981Z,2.60
2018-11-25T18:40:13.784Z,2.60
2018-11-25T18:42:42.921Z,2.70
2018-11-25T18:45:15.506Z,2.80
2018-11-25T18:47:45.650Z,2.70
2018-11-25T18:50:14.905Z,2.70
2018-11-25T18:52:44.472Z,2.70
2018-11-25T18:55:11.913Z,2.50
2018-11-25T18:57:40.336Z,2.40
2018-11-25T19:00:11.286Z,2.50
2018-11-25T19:02:41.168Z,2.40
2018-11-25T19:05:09.700Z,2.50
2018-11-25T19:07:38.170Z,2.50
2018-11-25T19:10:09.336Z,2.60
2018-11-25T19:12:44.099Z,2.80
2018-11-25T19:15:07.860Z,2.80
2018-11-25T19:17:36.175Z,2.80
2018-11-25T19:20:10.377Z,2.80
2018-11-25T19:22:38.693Z,2.90
2018-11-25T19:25:08.189Z,2.90
2018-11-25T19:27:36.505Z,3.00
2018-11-25T19:30:07.022Z,3.00
2018-11-25T19:32:35.337Z,3.00
2018-11-25T19:35:03.637Z,2.80
2018-11-25T19:37:31.945Z,2.80
2018-11-25T19:40:00.241Z,2.80
2018-11-25T19:42:28.565Z,2.90
2018-11-25T19:44:56.852Z,2.90
2018-11-25T19:47:25.198Z,2.90
2018-11-25T19:49:53.494Z,2.80
2018-11-25T19:52:21.805Z,2.70
2018-11-25T19:54:50.105Z,2.70
2018-11-25T19:57:18.420Z,2.60
2018-11-25T19:59:46.717Z,2.50
2018-11-25T20:02:15.025Z,2.40
2018-11-25T20:04:43.323Z,2.40
2018-11-25T20:07:11.653Z,2.30
2018-11-25T20:09:40.068Z,2.20
2018-11-25T20:12:08.401Z,2.20
2018-11-25T20:14:36.727Z,2.20
2018-11-25T20:17:41.195Z,2.20
2018-11-25T20:20:11.432Z,2.20
2018-11-25T20:22:39.744Z,2.10
2018-11-25T20:25:09.234Z,2.10
2018-11-25T20:27:42.884Z,2.00
2018-11-25T20:30:12.441Z,2.00
2018-11-25T20:32:47.629Z,2.00
2018-11-25T20:35:15.957Z,1.90
2018-11-25T20:37:49.671Z,1.90
2018-11-25T20:40:18.102Z,1.90
2018-11-25T20:42:46.622Z,1.90
2018-11-25T20:45:21.305Z,1.90
2018-11-25T20:47:49.642Z,1.80
2018-11-25T20:50:17.966Z,1.80
2018-11-25T20:52:51.680Z,1.80
2018-11-25T20:55:20.701Z,1.80
2018-11-25T20:57:49.016Z,1.90
2018-11-25T21:00:18.570Z,1.90
2018-11-25T21:02:46.894Z,2.10
2018-11-25T21:05:15.745Z,2.10
2018-11-25T21:07:44.126Z,2.20
2018-11-25T21:10:15.339Z,2.30
2018-11-25T21:12:44.830Z,2.40
2018-11-25T21:15:13.186Z,2.40
2018-11-25T21:17:41.597Z,2.30
2018-11-25T21:20:14.212Z,2.40
2018-11-25T21:22:42.520Z,2.50
2018-11-25T21:25:19.478Z,2.50
2018-11-25T21:27:47.829Z,2.40
2018-11-25T21:30:22.510Z,2.40
2018-11-25T21:32:52.961Z,2.30
2018-11-25T21:35:21.254Z,2.30
2018-11-25T21:37:49.560Z,2.40
2018-11-25T21:40:18.952Z,2.40
2018-11-25T21:42:47.272Z,2.40
2018-11-25T21:45:16.563Z,2.40
2018-11-25T21:47:45.050Z,2.40
2018-11-25T21:50:16.392Z,2.50
2018-11-25T21:52:44.712Z,2.50
2018-11-25T21:55:14.232Z,2.50
2018-11-25T21:57:42.556Z,2.50
2018-11-25T22:00:12.127Z,2.60
2018-11-25T22:02:40.431Z,2.50
2018-11-25T22:05:09.717Z,2.50
2018-11-25T22:07:38.042Z,2.60
2018-11-25T22:10:09.614Z,2.60
2018-11-25T22:12:38.793Z,2.50
2018-11-25T22:15:12.124Z,2.60
2018-11-25T22:17:40.837Z,2.70
2018-11-25T22:20:11.121Z,2.70
2018-11-25T22:22:39.541Z,2.70
2018-11-25T22:25:09.765Z,2.70
2018-11-25T22:27:38.098Z,2.70
2018-11-25T22:30:18.338Z,2.70
2018-11-25T22:32:46.648Z,2.80
2018-11-25T22:35:16.037Z,2.90
2018-11-25T22:37:44.371Z,2.90
2018-11-25T22:40:13.749Z,3.00
2018-11-25T22:42:42.947Z,3.10
2018-11-25T22:45:12.283Z,3.10
2018-11-25T22:47:40.600Z,3.20
2018-11-25T22:50:11.212Z,3.50
2018-11-25T22:52:39.500Z,3.60
2018-11-25T22:55:09.936Z,3.60
2018-11-25T22:57:38.228Z,3.50
2018-11-25T23:00:17.148Z,3.60
2018-11-25T23:02:45.609Z,3.50
2018-11-25T23:05:25.329Z,3.40
2018-11-25T23:07:53.612Z,3.40
2018-11-25T23:10:22.084Z,3.30
2018-11-25T23:12:50.381Z,3.20
2018-11-25T23:15:18.692Z,3.30
2018-11-25T23:17:46.989Z,3.30
2018-11-25T23:20:15.309Z,3.30
2018-11-25T23:22:43.611Z,3.30
2018-11-25T23:25:12.013Z,3.30
2018-11-25T23:27:40.622Z,3.40
2018-11-25T23:30:10.030Z,3.50
2018-11-25T23:32:38.324Z,3.70
2018-11-25T23:35:11.333Z,3.80
2018-11-25T23:37:39.665Z,3.80
2018-11-25T23:40:09.357Z,3.70
2018-11-25T23:42:37.649Z,3.70
2018-11-25T23:45:07.980Z,3.60
2018-11-25T23:47:36.316Z,3.60
2018-11-25T23:50:05.286Z,3.70
2018-11-25T23:52:33.594Z,3.70
2018-11-25T23:55:01.911Z,3.70
2018-11-25T23:57:30.220Z,3.70
2018-11-25T23:59:58.532Z,3.80
